createdAt,value
2023-01-26T00:00:01.108Z,40.30
2023-01-26T00:02:29.438Z,43.67
2023-01-26T00:04:57.696Z,43.72
2023-01-26T00:07:25.913Z,44.70
2023-01-26T00:09:55.506Z,41.38
2023-01-26T00:12:23.997Z,36.40
2023-01-26T00:14:52.317Z,34.10
2023-01-26T00:17:28.215Z,41.72
2023-01-26T00:19:58.405Z,42.78
2023-01-26T00:22:28.307Z,40.20
2023-01-26T00:24:58.177Z,40.45
2023-01-26T00:27:26.846Z,42.70
2023-01-26T00:29:55.169Z,33.53
2023-01-26T00:32:23.340Z,40.22
2023-01-26T00:34:51.669Z,38.17
2023-01-26T00:37:19.934Z,36.60
2023-01-26T00:39:48.213Z,34.80
2023-01-26T00:42:17.769Z,37.40
2023-01-26T00:44:46.339Z,37.60
2023-01-26T00:47:15.155Z,35.08
2023-01-26T00:49:43.569Z,37.28
2023-01-26T00:52:12.124Z,38.05
2023-01-26T00:54:40.702Z,32.00
2023-01-26T00:57:08.988Z,37.63
2023-01-26T00:59:38.660Z,38.75
2023-01-26T01:02:07.075Z,41.70
2023-01-26T01:04:35.312Z,39.45
2023-01-26T01:07:03.631Z,38.55
2023-01-26T01:09:31.908Z,37.17
2023-01-26T01:12:00.165Z,37.22
2023-01-26T01:14:28.362Z,38.97
2023-01-26T01:16:58.489Z,37.88
2023-01-26T01:19:27.445Z,38.90
2023-01-26T01:21:55.754Z,36.97
2023-01-26T01:24:24.015Z,30.98
2023-01-26T01:26:52.228Z,37.70
2023-01-26T01:29:20.564Z,36.75
2023-01-26T01:31:49.208Z,38.30
2023-01-26T01:34:19.032Z,35.97
2023-01-26T01:36:47.317Z,36.60
2023-01-26T01:41:43.857Z,37.08
2023-01-26T01:44:17.791Z,35.65
2023-01-26T01:46:50.730Z,34.17
2023-01-26T01:49:24.261Z,32.47
2023-01-26T01:51:56.701Z,32.60
2023-01-26T01:54:30.350Z,33.13
2023-01-26T01:57:01.905Z,31.90
2023-01-26T01:59:32.626Z,34.42
2023-01-26T02:02:01.351Z,27.75
2023-01-26T02:04:31.436Z,32.95
2023-01-26T02:07:01.689Z,32.70
2023-01-26T02:09:51.793Z,35.63
2023-01-26T02:12:23.168Z,32.00
2023-01-26T02:14:53.615Z,31.25
2023-01-26T02:17:21.890Z,30.65
2023-01-26T02:19:59.827Z,33.92
2023-01-26T02:22:36.324Z,30.63
2023-01-26T02:25:12.419Z,26.95
2023-01-26T02:27:42.538Z,29.05
2023-01-26T02:30:13.293Z,31.83
2023-01-26T02:32:41.494Z,33.17
2023-01-26T02:35:10.786Z,31.08
2023-01-26T02:37:39.139Z,32.20
2023-01-26T02:40:14.384Z,33.38
2023-01-26T02:42:44.513Z,33.53
2023-01-26T02:45:16.169Z,34.25
2023-01-26T02:47:45.013Z,29.33
2023-01-26T02:50:13.613Z,33.55
2023-01-26T02:52:42.273Z,33.38
2023-01-26T02:55:26.211Z,29.85
2023-01-26T02:57:57.931Z,35.35
2023-01-26T03:00:28.136Z,32.60
2023-01-26T03:02:58.779Z,31.60
2023-01-26T03:05:27.399Z,33.83
2023-01-26T03:07:56.116Z,32.42
2023-01-26T03:10:27.195Z,28.38
2023-01-26T03:12:56.966Z,33.88
2023-01-26T03:15:43.898Z,29.67
2023-01-26T03:18:30.917Z,27.50
2023-01-26T03:21:18.243Z,36.42
2023-01-26T03:24:04.397Z,31.05
2023-01-26T03:26:50.029Z,34.25
2023-01-26T03:29:19.805Z,32.00
2023-01-26T03:31:48.440Z,30.95
2023-01-26T03:34:16.816Z,30.27
2023-01-26T03:36:45.224Z,29.05
2023-01-26T03:39:34.300Z,34.10
2023-01-26T03:42:20.312Z,35.40
2023-01-26T03:45:07.056Z,33.28
2023-01-26T03:47:54.587Z,32.80
2023-01-26T03:50:40.464Z,27.38
2023-01-26T03:56:22.215Z,31.88
2023-01-26T03:58:53.174Z,34.67
2023-01-26T04:01:26.520Z,30.75
2023-01-26T04:04:14.528Z,29.70
2023-01-26T04:07:01.936Z,29.08
2023-01-26T04:09:30.966Z,30.60
2023-01-26T04:11:59.597Z,28.75
2023-01-26T04:14:50.477Z,33.13
2023-01-26T04:17:38.128Z,31.73
2023-01-26T04:20:25.447Z,30.63
2023-01-26T04:22:53.826Z,31.92
2023-01-26T04:25:23.438Z,31.67
2023-01-26T04:27:51.815Z,30.08
2023-01-26T04:30:20.717Z,32.72
2023-01-26T04:32:53.006Z,30.70
2023-01-26T04:35:21.325Z,31.90
2023-01-26T04:37:50.164Z,29.38
2023-01-26T04:40:18.590Z,31.02
2023-01-26T04:42:46.775Z,34.75
2023-01-26T04:45:15.000Z,28.40
2023-01-26T04:47:43.281Z,29.83
2023-01-26T04:50:13.593Z,33.60
2023-01-26T04:52:42.045Z,32.80
2023-01-26T04:55:10.904Z,30.45
2023-01-26T04:57:39.376Z,27.73
2023-01-26T05:00:10.961Z,28.77
2023-01-26T05:02:40.441Z,31.27
2023-01-26T05:05:09.462Z,23.52
2023-01-26T05:07:39.047Z,32.65
2023-01-26T05:10:08.130Z,31.92
2023-01-26T05:12:38.385Z,28.40
2023-01-26T05:15:07.287Z,29.27
2023-01-26T05:17:38.116Z,29.30
2023-01-26T05:20:07.126Z,30.48
2023-01-26T05:22:35.432Z,28.70
2023-01-26T05:25:05.734Z,23.17
2023-01-26T05:27:33.865Z,27.40
2023-01-26T05:30:02.174Z,27.48
2023-01-26T05:32:31.804Z,30.25
2023-01-26T05:35:00.571Z,25.73
2023-01-26T05:37:30.225Z,26.42
2023-01-26T05:39:58.538Z,27.67
2023-01-26T05:42:28.445Z,23.98
2023-01-26T05:44:56.755Z,23.15
2023-01-26T05:47:25.362Z,27.95
2023-01-26T05:49:53.734Z,24.10
2023-01-26T05:52:23.186Z,24.70
2023-01-26T05:54:51.371Z,23.85
2023-01-26T05:57:19.672Z,20.13
2023-01-26T05:59:49.419Z,24.45
2023-01-26T06:02:17.761Z,22.25
2023-01-26T06:04:46.304Z,23.27
2023-01-26T06:07:14.781Z,23.17
2023-01-26T06:09:43.387Z,22.38
2023-01-26T06:12:16.655Z,24.25
2023-01-26T06:14:47.142Z,20.95
2023-01-26T06:17:19.048Z,19.95
2023-01-26T06:19:47.340Z,23.35
2023-01-26T06:22:16.083Z,22.48
2023-01-26T06:24:44.426Z,22.00
2023-01-26T06:27:14.540Z,24.42
2023-01-26T06:29:42.995Z,22.02
2023-01-26T06:32:11.956Z,23.05
2023-01-26T06:34:41.995Z,24.50
2023-01-26T06:37:10.643Z,25.08
2023-01-26T06:39:39.205Z,23.88
2023-01-26T06:42:09.404Z,21.58
2023-01-26T06:44:37.641Z,22.05
2023-01-26T06:47:07.449Z,22.40
2023-01-26T06:49:35.699Z,19.33
2023-01-26T06:52:24.059Z,21.30
2023-01-26T06:54:52.755Z,24.63
2023-01-26T06:57:21.224Z,25.00
2023-01-26T06:59:49.488Z,21.88
2023-01-26T07:02:19.735Z,20.90
2023-01-26T07:04:48.333Z,20.15
2023-01-26T07:07:18.023Z,19.63
2023-01-26T07:09:46.290Z,19.20
2023-01-26T07:12:14.561Z,21.23
2023-01-26T07:14:42.796Z,17.48
2023-01-26T07:17:11.065Z,22.40
2023-01-26T07:19:39.690Z,19.27
2023-01-26T07:22:07.976Z,20.60
2023-01-26T07:24:37.515Z,19.90
2023-01-26T07:27:05.719Z,19.15
2023-01-26T07:29:33.911Z,20.30
2023-01-26T07:32:02.211Z,19.75
2023-01-26T07:34:30.642Z,18.42
2023-01-26T07:36:59.443Z,20.33
2023-01-26T07:39:28.115Z,19.33
2023-01-26T07:41:57.736Z,18.33
2023-01-26T07:44:25.954Z,19.27
2023-01-26T07:46:54.681Z,19.60
2023-01-26T07:49:22.946Z,17.65
2023-01-26T07:51:52.523Z,14.95
2023-01-26T07:54:22.667Z,18.40
2023-01-26T07:56:54.567Z,18.60
2023-01-26T07:59:24.968Z,15.70
2023-01-26T08:01:53.840Z,18.55
2023-01-26T08:04:22.177Z,17.88
2023-01-26T08:06:52.694Z,17.15
2023-01-26T08:09:21.156Z,16.60
2023-01-26T08:11:49.428Z,16.25
2023-01-26T08:14:17.880Z,17.65
2023-01-26T08:16:47.585Z,17.33
2023-01-26T08:19:16.169Z,15.48
2023-01-26T08:21:44.453Z,20.20
2023-01-26T08:24:13.291Z,14.93
2023-01-26T08:26:41.585Z,16.27
2023-01-26T08:29:09.884Z,16.42
2023-01-26T08:31:39.642Z,18.27
2023-01-26T08:34:09.268Z,15.48
2023-01-26T08:36:37.755Z,20.48
2023-01-26T08:39:05.922Z,19.90
2023-01-26T08:41:34.173Z,20.75
2023-01-26T08:44:02.459Z,14.63
2023-01-26T08:46:30.663Z,18.23
2023-01-26T08:49:00.483Z,16.17
2023-01-26T08:51:30.530Z,19.30
2023-01-26T08:53:58.786Z,18.05
2023-01-26T08:56:27.174Z,18.00
2023-01-26T08:58:55.311Z,19.00
2023-01-26T09:01:23.570Z,14.35
2023-01-26T09:03:53.063Z,17.98
2023-01-26T09:06:21.400Z,16.40
2023-01-26T09:08:50.992Z,16.67
2023-01-26T09:11:19.274Z,17.08
2023-01-26T09:13:56.430Z,14.77
2023-01-26T09:16:25.711Z,19.75
2023-01-26T09:18:54.673Z,18.92
2023-01-26T09:21:24.416Z,18.45
2023-01-26T09:23:54.079Z,18.75
2023-01-26T09:26:22.379Z,15.35
2023-01-26T09:28:52.838Z,19.00
2023-01-26T09:31:21.304Z,17.80
2023-01-26T09:33:50.729Z,20.13
2023-01-26T09:36:19.334Z,15.50
2023-01-26T09:38:47.733Z,19.10
2023-01-26T09:41:37.187Z,17.95
2023-01-26T09:44:09.657Z,17.98
2023-01-26T09:46:47.906Z,19.08
2023-01-26T09:49:20.312Z,18.20
2023-01-26T09:51:59.359Z,17.98
2023-01-26T09:54:34.510Z,18.23
2023-01-26T09:57:11.761Z,18.70
2023-01-26T09:59:46.546Z,19.25
2023-01-26T10:02:27.267Z,16.50
2023-01-26T10:04:59.610Z,19.67
2023-01-26T10:07:28.038Z,17.92
2023-01-26T10:09:56.793Z,19.98
2023-01-26T10:12:31.825Z,16.95
2023-01-26T10:15:04.519Z,14.88
2023-01-26T10:17:35.787Z,18.23
2023-01-26T10:20:09.186Z,19.25
2023-01-26T10:22:43.991Z,17.70
2023-01-26T10:25:17.471Z,19.83
2023-01-26T10:27:47.599Z,18.42
2023-01-26T10:30:16.604Z,19.45
2023-01-26T10:32:47.304Z,18.10
2023-01-26T10:35:19.931Z,18.92
2023-01-26T10:37:48.467Z,18.15
2023-01-26T10:40:17.967Z,16.63
2023-01-26T10:42:56.610Z,17.92
2023-01-26T10:45:31.773Z,17.38
2023-01-26T10:48:16.505Z,16.42
2023-01-26T10:50:44.890Z,17.83
2023-01-26T10:53:23.984Z,17.23
2023-01-26T10:56:04.596Z,19.65
2023-01-26T10:58:46.328Z,18.92
2023-01-26T11:01:16.245Z,17.70
2023-01-26T11:03:59.851Z,18.23
2023-01-26T11:06:30.335Z,21.70
2023-01-26T11:09:12.216Z,20.90
2023-01-26T11:11:40.963Z,19.08
2023-01-26T11:14:16.807Z,19.58
2023-01-26T11:16:48.742Z,19.63
2023-01-26T11:19:26.138Z,18.60
2023-01-26T11:21:59.393Z,17.27
2023-01-26T11:24:31.427Z,18.85
2023-01-26T11:27:32.854Z,19.20
2023-01-26T11:30:27.122Z,17.58
2023-01-26T11:33:02.662Z,15.93
2023-01-26T11:35:37.500Z,14.65
2023-01-26T11:38:20.192Z,20.00
2023-01-26T11:40:52.726Z,18.50
2023-01-26T11:43:37.885Z,15.35
2023-01-26T11:46:30.257Z,19.65
2023-01-26T11:49:12.229Z,19.90
2023-01-26T11:51:52.214Z,18.88
2023-01-26T11:54:39.614Z,17.75
2023-01-26T11:57:19.494Z,18.55
2023-01-26T11:59:52.298Z,16.17
2023-01-26T12:02:33.285Z,16.20
2023-01-26T12:05:08.501Z,17.08
2023-01-26T12:07:55.804Z,22.38
2023-01-26T12:10:29.944Z,16.88
2023-01-26T12:13:06.877Z,18.45
2023-01-26T12:15:38.746Z,22.00
2023-01-26T12:18:17.936Z,21.73
2023-01-26T12:20:51.139Z,21.08
2023-01-26T12:23:31.035Z,17.90
2023-01-26T12:26:03.082Z,12.70
2023-01-26T12:28:36.187Z,15.98
2023-01-26T12:31:10.734Z,19.80
2023-01-26T12:33:40.919Z,18.03
2023-01-26T12:36:25.660Z,17.10
2023-01-26T12:39:14.318Z,15.70
2023-01-26T12:42:03.733Z,13.30
2023-01-26T12:44:38.920Z,19.35
2023-01-26T12:47:13.712Z,18.13
2023-01-26T12:49:48.741Z,15.27
2023-01-26T12:52:22.624Z,16.67
2023-01-26T12:54:58.661Z,19.75
2023-01-26T12:57:32.312Z,19.17
2023-01-26T13:00:08.629Z,16.27
2023-01-26T13:02:38.262Z,12.95
2023-01-26T13:05:08.561Z,14.18
2023-01-26T13:07:38.420Z,15.45
2023-01-26T13:10:24.748Z,15.85
2023-01-26T13:12:55.088Z,12.93
2023-01-26T13:15:25.514Z,16.65
2023-01-26T13:17:58.674Z,17.92
2023-01-26T13:20:47.336Z,16.38
2023-01-26T13:23:40.524Z,18.00
2023-01-26T13:26:25.848Z,20.80
2023-01-26T13:28:54.523Z,19.02
2023-01-26T13:31:34.103Z,18.38
2023-01-26T13:34:04.158Z,17.58
2023-01-26T13:36:36.642Z,15.50
2023-01-26T13:39:06.694Z,16.05
2023-01-26T13:41:35.225Z,14.68
2023-01-26T13:44:08.723Z,16.20
2023-01-26T13:46:39.267Z,9.88
2023-01-26T13:49:07.880Z,9.90
2023-01-26T13:51:37.848Z,9.00
2023-01-26T13:54:07.307Z,7.90
2023-01-26T13:56:36.413Z,6.65
2023-01-26T13:59:06.534Z,5.25
2023-01-26T14:01:35.383Z,4.95
2023-01-26T14:04:05.107Z,4.97
2023-01-26T14:06:34.239Z,6.85
2023-01-26T14:09:04.970Z,4.93
2023-01-26T14:11:35.125Z,4.85
2023-01-26T14:14:04.405Z,4.68
2023-01-26T14:16:34.059Z,4.05
2023-01-26T14:19:07.497Z,5.13
2023-01-26T14:21:47.537Z,5.75
2023-01-26T14:24:17.742Z,4.03
2023-01-26T14:26:47.239Z,6.32
2023-01-26T14:29:22.626Z,3.42
2023-01-26T14:31:52.604Z,5.22
2023-01-26T14:34:23.286Z,5.10
2023-01-26T14:37:07.389Z,5.47
2023-01-26T14:39:37.108Z,5.28
2023-01-26T14:42:06.252Z,3.75
2023-01-26T14:44:34.517Z,3.47
2023-01-26T14:47:06.024Z,4.43
2023-01-26T14:49:43.703Z,4.22
2023-01-26T14:52:24.314Z,3.67
2023-01-26T14:54:55.610Z,3.45
2023-01-26T14:57:26.479Z,4.50
2023-01-26T14:59:57.986Z,3.17
2023-01-26T15:02:28.633Z,3.30
2023-01-26T15:05:01.182Z,4.03
2023-01-26T15:07:39.323Z,4.50
2023-01-26T15:10:32.825Z,3.60
2023-01-26T15:13:04.240Z,4.60
2023-01-26T15:15:35.546Z,4.28
2023-01-26T15:18:06.843Z,3.40
2023-01-26T15:20:43.691Z,3.95
2023-01-26T15:23:28.426Z,3.50
2023-01-26T15:26:05.223Z,3.55
2023-01-26T15:28:34.784Z,4.10
2023-01-26T15:31:03.315Z,4.00
2023-01-26T15:33:46.084Z,4.07
2023-01-26T15:36:30.315Z,4.10
2023-01-26T15:39:12.909Z,4.50
2023-01-26T15:41:42.958Z,4.15
2023-01-26T15:44:16.614Z,4.50
2023-01-26T15:46:45.462Z,4.78
2023-01-26T15:49:14.007Z,3.88
2023-01-26T15:51:42.555Z,3.75
2023-01-26T15:54:12.382Z,4.45
2023-01-26T15:56:43.374Z,5.25
2023-01-26T15:59:11.572Z,6.13
2023-01-26T16:01:40.498Z,5.75
2023-01-26T16:04:12.566Z,5.72
2023-01-26T16:06:41.255Z,4.68
2023-01-26T16:09:09.550Z,4.82
2023-01-26T16:11:43.696Z,5.15
2023-01-26T16:14:14.439Z,3.92
2023-01-26T16:16:45.379Z,4.65
2023-01-26T16:19:26.319Z,3.60
2023-01-26T16:22:02.909Z,4.15
2023-01-26T16:24:33.559Z,4.43
2023-01-26T16:27:01.792Z,3.60
2023-01-26T16:29:31.847Z,3.45
2023-01-26T16:32:00.591Z,4.15
2023-01-26T16:34:29.472Z,4.20
2023-01-26T16:36:57.866Z,4.47
2023-01-26T16:39:26.248Z,3.85
2023-01-26T16:41:54.471Z,4.15
2023-01-26T16:44:24.292Z,3.15
2023-01-26T16:46:53.884Z,5.30
2023-01-26T16:49:22.151Z,6.72
2023-01-26T16:51:50.385Z,3.83
2023-01-26T16:54:18.810Z,3.45
2023-01-26T16:56:47.280Z,3.47
2023-01-26T16:59:15.390Z,3.65
2023-01-26T17:01:44.039Z,3.63
2023-01-26T17:04:14.034Z,3.75
2023-01-26T17:06:42.319Z,3.13
2023-01-26T17:09:10.750Z,4.40
2023-01-26T17:11:42.440Z,3.40
2023-01-26T17:14:11.756Z,3.67
2023-01-26T17:16:40.512Z,3.13
2023-01-26T17:19:09.325Z,3.83
2023-01-26T17:21:39.350Z,3.50
2023-01-26T17:24:07.992Z,2.17
2023-01-26T17:26:36.168Z,3.17
2023-01-26T17:29:04.628Z,3.00
2023-01-26T17:31:32.955Z,3.10
2023-01-26T17:34:01.157Z,3.08
2023-01-26T17:36:29.718Z,4.25
2023-01-26T17:38:59.281Z,4.15
2023-01-26T17:41:28.729Z,2.53
2023-01-26T17:43:56.968Z,3.53
2023-01-26T17:46:25.498Z,2.88
2023-01-26T17:48:56.272Z,3.00
2023-01-26T17:51:24.835Z,3.47
2023-01-26T17:53:54.255Z,2.70
2023-01-26T17:56:25.027Z,2.63
2023-01-26T17:58:54.581Z,3.28
2023-01-26T18:01:24.316Z,2.55
2023-01-26T18:03:53.888Z,2.40
2023-01-26T18:06:22.661Z,2.72
2023-01-26T18:08:51.241Z,2.83
2023-01-26T18:11:19.815Z,2.63
2023-01-26T18:13:50.613Z,2.20
2023-01-26T18:16:20.328Z,1.27
2023-01-26T18:18:49.363Z,2.28
2023-01-26T18:21:18.883Z,1.80
2023-01-26T18:23:47.914Z,1.77
2023-01-26T18:26:17.099Z,2.25
2023-01-26T18:28:46.089Z,2.35
2023-01-26T18:31:16.960Z,2.28
2023-01-26T18:33:45.799Z,1.83
2023-01-26T18:36:19.835Z,1.83
2023-01-26T18:38:51.560Z,2.10
2023-01-26T18:41:21.178Z,1.48
2023-01-26T18:43:54.391Z,1.20
2023-01-26T18:46:24.746Z,1.80
2023-01-26T18:48:54.353Z,1.20
2023-01-26T18:51:23.195Z,1.95
2023-01-26T18:53:51.405Z,1.40
2023-01-26T18:56:20.142Z,1.58
2023-01-26T18:58:48.364Z,1.63
2023-01-26T19:01:18.847Z,2.17
2023-01-26T19:03:54.186Z,1.92
2023-01-26T19:06:23.641Z,1.25
2023-01-26T19:09:00.770Z,1.90
2023-01-26T19:11:31.181Z,1.67
2023-01-26T19:14:00.127Z,2.05
2023-01-26T19:16:29.487Z,2.03
2023-01-26T19:18:59.282Z,2.15
2023-01-26T19:21:28.797Z,2.33
2023-01-26T19:23:58.676Z,2.53
2023-01-26T19:26:29.511Z,2.42
2023-01-26T19:28:57.929Z,2.85
2023-01-26T19:31:26.939Z,2.83
2023-01-26T19:33:56.729Z,2.35
2023-01-26T19:36:27.521Z,2.80
2023-01-26T19:38:56.698Z,2.10
2023-01-26T19:41:25.982Z,2.55
2023-01-26T19:43:54.624Z,2.40
2023-01-26T19:46:22.960Z,2.42
2023-01-26T19:48:51.594Z,2.05
2023-01-26T19:51:20.995Z,2.45
2023-01-26T19:53:52.518Z,2.13
2023-01-26T19:56:22.664Z,1.83
2023-01-26T19:58:51.971Z,1.70
2023-01-26T20:01:21.036Z,2.10
2023-01-26T20:03:52.192Z,1.92
2023-01-26T20:06:22.220Z,2.10
2023-01-26T20:08:52.296Z,2.67
2023-01-26T20:11:24.944Z,2.33
2023-01-26T20:13:56.181Z,3.47
2023-01-26T20:16:24.693Z,2.85
2023-01-26T20:18:52.962Z,2.53
2023-01-26T20:21:21.202Z,2.13
2023-01-26T20:23:55.401Z,2.78
2023-01-26T20:26:25.100Z,1.73
2023-01-26T20:28:57.686Z,2.47
2023-01-26T20:31:27.430Z,2.13
2023-01-26T20:33:56.671Z,2.17
2023-01-26T20:36:28.225Z,2.20
2023-01-26T20:38:58.088Z,2.00
2023-01-26T20:41:28.525Z,2.40
2023-01-26T20:44:00.959Z,2.40
2023-01-26T20:46:31.984Z,2.03
2023-01-26T20:49:00.404Z,2.05
2023-01-26T20:51:31.340Z,1.98
2023-01-26T20:54:01.167Z,2.63
2023-01-26T20:56:29.583Z,2.45
2023-01-26T20:58:57.928Z,1.80
2023-01-26T21:01:27.633Z,2.30
2023-01-26T21:03:56.115Z,3.70
2023-01-26T21:06:26.295Z,1.90
2023-01-26T21:08:57.423Z,2.70
2023-01-26T21:11:28.897Z,2.45
2023-01-26T21:13:58.014Z,2.90
2023-01-26T21:16:26.741Z,2.30
2023-01-26T21:18:55.211Z,2.35
2023-01-26T21:21:24.354Z,2.22
2023-01-26T21:23:53.320Z,2.10
2023-01-26T21:26:23.142Z,3.25
2023-01-26T21:28:54.264Z,2.38
2023-01-26T21:31:25.012Z,2.92
2023-01-26T21:33:54.018Z,2.40
2023-01-26T21:36:24.443Z,2.45
2023-01-26T21:38:53.934Z,2.30
2023-01-26T21:41:41.958Z,2.60
2023-01-26T21:44:13.709Z,2.38
2023-01-26T21:46:42.530Z,2.53
2023-01-26T21:49:11.510Z,2.13
2023-01-26T21:51:56.859Z,1.90
2023-01-26T21:54:25.217Z,2.67
2023-01-26T21:56:53.777Z,2.53
2023-01-26T21:59:22.488Z,2.95
2023-01-26T22:01:52.516Z,2.20
2023-01-26T22:04:22.893Z,2.30
2023-01-26T22:06:52.229Z,2.58
2023-01-26T22:09:21.404Z,1.92
2023-01-26T22:11:50.538Z,2.85
2023-01-26T22:14:21.046Z,2.45
2023-01-26T22:16:51.145Z,2.90
2023-01-26T22:19:19.376Z,2.38
2023-01-26T22:21:48.113Z,2.22
2023-01-26T22:24:18.216Z,2.78
2023-01-26T22:26:46.526Z,2.30
2023-01-26T22:29:14.755Z,2.35
2023-01-26T22:31:43.518Z,3.00
2023-01-26T22:34:13.225Z,2.88
2023-01-26T22:36:41.470Z,3.10
2023-01-26T22:39:10.019Z,2.47
2023-01-26T22:41:38.264Z,2.97
2023-01-26T22:44:06.638Z,3.00
2023-01-26T22:46:35.261Z,2.78
2023-01-26T22:49:05.882Z,2.47
2023-01-26T22:51:37.533Z,2.95
2023-01-26T22:54:06.401Z,2.47
2023-01-26T22:56:35.282Z,2.95
2023-01-26T22:59:04.358Z,2.67
2023-01-26T23:01:34.124Z,2.22
2023-01-26T23:04:02.823Z,2.53
2023-01-26T23:06:31.435Z,2.50
2023-01-26T23:09:05.017Z,2.85
2023-01-26T23:11:33.328Z,2.83
2023-01-26T23:14:01.893Z,3.15
2023-01-26T23:16:30.406Z,2.47
2023-01-26T23:18:59.906Z,2.05
2023-01-26T23:21:29.096Z,2.80
2023-01-26T23:23:57.702Z,2.70
2023-01-26T23:26:28.142Z,2.08
2023-01-26T23:28:56.492Z,2.70
2023-01-26T23:31:25.062Z,2.55
2023-01-26T23:33:53.371Z,3.85
2023-01-26T23:36:22.416Z,2.40
2023-01-26T23:38:50.964Z,3.00
2023-01-26T23:41:19.679Z,2.65
2023-01-26T23:43:49.219Z,2.85
2023-01-26T23:46:17.624Z,3.38
2023-01-26T23:48:45.947Z,2.08
2023-01-26T23:51:14.800Z,3.15
2023-01-26T23:53:43.035Z,2.42
2023-01-26T23:56:14.777Z,2.25
2023-01-26T23:58:43.223Z,1.98
